Time;durP1;ratioP1;P1;durP2;ratioP2;P2;SDS_P1;SDS_P2;PMS_P1;PMS_P2;Temp;Humidity;BMP_temperature;BMP_pressure;BME280_temperature;BME280_humidity;BME280_pressure;Samples;Min_cycle;Max_cycle;Signal;HPM_P1;HPM_P2
2022/03/11 00:01:46;;;;;;;9.75;7.97;;;-0.80;57.40;;;;;;5052062;28;20104;-58
2022/03/11 00:04:12;;;;;;;14.20;7.72;;;-0.80;58.30;;;;;;5051940;28;20096;-59
2022/03/11 00:06:37;;;;;;;11.88;7.57;;;-0.90;58.10;;;;;;5051880;28;20548;-59
2022/03/11 00:12:25;;;;;;;13.82;8.18;;;-0.90;58.70;;;;;;5050655;28;20066;-61
2022/03/11 00:14:51;;;;;;;11.88;7.70;;;-1.00;59.30;;;;;;5050629;28;20423;-59
2022/03/11 00:17:16;;;;;;;14.00;8.43;;;-1.00;59.10;;;;;;5048674;28;20381;-59
2022/03/11 00:19:42;;;;;;;17.98;9.10;;;-1.10;59.20;;;;;;5051323;28;20060;-59
2022/03/11 00:22:08;;;;;;;13.40;8.57;;;-1.10;59.20;;;;;;5051553;28;20032;-59
2022/03/11 00:24:33;;;;;;;17.88;8.98;;;-1.10;60.10;;;;;;5051146;28;20554;-60
2022/03/11 00:26:59;;;;;;;29.48;9.75;;;-1.20;59.70;;;;;;5051313;28;20384;-60
2022/03/11 00:29:25;;;;;;;16.98;8.63;;;-1.20;60.20;;;;;;5050190;28;20388;-56
2022/03/11 00:31:50;;;;;;;17.15;7.70;;;-1.20;60.40;;;;;;5050710;28;20037;-58
2022/03/11 00:34:17;;;;;;;15.43;8.88;;;-1.20;60.40;;;;;;5050459;28;20029;-56
2022/03/11 00:36:44;;;;;;;16.45;9.10;;;-1.20;61.10;;;;;;5050904;28;20021;-59
2022/03/11 00:39:10;;;;;;;14.45;8.45;;;-1.30;61.10;;;;;;5050866;28;20466;-59
2022/03/11 00:41:36;;;;;;;15.48;8.00;;;-1.30;61.20;;;;;;5049368;28;20032;-56
2022/03/11 00:44:02;;;;;;;13.25;8.85;;;-1.30;61.30;;;;;;5050716;28;20475;-58
2022/03/11 00:46:28;;;;;;;15.52;8.43;;;-1.30;62.00;;;;;;5051097;28;20021;-59
2022/03/11 00:48:53;;;;;;;17.45;9.25;;;-1.40;62.40;;;;;;5051075;28;20025;-56
2022/03/11 00:51:19;;;;;;;20.58;8.63;;;-1.40;62.60;;;;;;5050551;28;20079;-58
2022/03/11 00:53:45;;;;;;;14.80;8.40;;;-1.40;62.70;;;;;;5049938;28;20025;-59
2022/03/11 00:56:10;;;;;;;14.60;8.38;;;-1.50;63.10;;;;;;5050166;28;20452;-58
2022/03/11 00:58:36;;;;;;;15.98;8.50;;;-1.50;63.70;;;;;;5050178;28;20098;-58
2022/03/11 01:01:02;;;;;;;11.82;8.15;;;-1.60;63.90;;;;;;5048646;28;20021;-59
2022/03/11 01:03:28;;;;;;;13.43;8.88;;;-1.60;64.00;;;;;;5048952;28;20021;-58
2022/03/11 01:05:54;;;;;;;16.67;9.10;;;-1.70;64.30;;;;;;5049272;28;20024;-58
2022/03/11 01:08:19;;;;;;;16.30;8.75;;;-1.70;65.00;;;;;;5049802;28;20032;-60
2022/03/11 01:10:45;;;;;;;13.88;8.45;;;-1.70;65.70;;;;;;5049347;28;20379;-53
2022/03/11 01:13:11;;;;;;;14.63;9.65;;;-1.80;65.80;;;;;;5050796;28;20127;-56
2022/03/11 01:15:36;;;;;;;17.33;9.30;;;-1.80;65.70;;;;;;5049858;28;20120;-56
2022/03/11 01:18:02;;;;;;;14.98;8.32;;;-1.80;66.00;;;;;;5049787;28;20036;-59
2022/03/11 01:20:27;;;;;;;14.27;9.48;;;-1.80;66.50;;;;;;5049972;28;20028;-53
2022/03/11 01:22:53;;;;;;;13.05;8.02;;;-1.80;67.00;;;;;;5050330;28;20563;-57
2022/03/11 01:25:19;;;;;;;14.98;9.30;;;-1.80;67.50;;;;;;5050706;28;20025;-58
2022/03/11 01:27:44;;;;;;;12.15;8.50;;;-1.90;67.90;;;;;;5050636;28;20516;-56
2022/03/11 01:30:13;;;;;;;13.68;9.20;;;-1.90;68.10;;;;;;5049306;28;20064;-55
2022/03/11 01:32:40;;;;;;;14.82;8.30;;;-1.90;67.90;;;;;;5050352;28;20063;-56
2022/03/11 01:35:06;;;;;;;15.32;8.95;;;-2.00;69.00;;;;;;5050823;28;20021;-56
2022/03/11 01:37:31;;;;;;;19.00;9.18;;;-2.00;70.10;;;;;;5050285;28;20025;-54
2022/03/11 01:39:57;;;;;;;13.52;9.18;;;-2.00;70.60;;;;;;5050490;28;20104;-56
2022/03/11 01:42:23;;;;;;;13.15;9.40;;;-2.10;71.40;;;;;;5050745;28;20078;-60
2022/03/11 01:44:49;;;;;;;16.40;8.73;;;-2.10;72.40;;;;;;5050592;28;20060;-58
2022/03/11 01:47:14;;;;;;;13.05;9.10;;;-2.10;72.90;;;;;;5053696;28;20072;-58
2022/03/11 01:49:40;;;;;;;20.05;10.40;;;-2.10;73.50;;;;;;5053786;28;20036;-57
2022/03/11 01:52:06;;;;;;;26.63;11.15;;;-2.10;74.10;;;;;;5053962;28;20482;-56
2022/03/11 01:57:54;;;;;;;36.22;10.50;;;-2.10;75.50;;;;;;5053879;28;20396;-57
2022/03/11 02:00:19;;;;;;;15.15;9.95;;;-2.20;75.90;;;;;;5053643;28;20024;-57
2022/03/11 02:02:45;;;;;;;28.85;11.48;;;-2.20;76.90;;;;;;5053772;28;20025;-57
2022/03/11 02:05:11;;;;;;;21.77;9.90;;;-2.20;78.70;;;;;;5054111;28;20036;-58
2022/03/11 02:07:37;;;;;;;16.30;10.00;;;-2.20;79.50;;;;;;5053982;28;20103;-56
2022/03/11 02:10:03;;;;;;;24.23;10.73;;;-2.30;80.00;;;;;;5052997;28;20025;-55
2022/03/11 02:12:30;;;;;;;20.60;10.43;;;-2.30;80.30;;;;;;5052622;28;20407;-59
2022/03/11 02:14:56;;;;;;;17.15;9.77;;;-2.30;81.50;;;;;;5053406;28;20039;-54
2022/03/11 02:17:22;;;;;;;15.02;9.77;;;-2.30;81.30;;;;;;5053170;28;20615;-57
2022/03/11 02:19:48;;;;;;;22.23;10.52;;;-2.40;82.30;;;;;;5053502;28;20108;-56
2022/03/11 02:22:16;;;;;;;19.73;10.20;;;-2.40;82.50;;;;;;5053646;28;20514;-56
2022/03/11 02:24:41;;;;;;;15.00;9.60;;;-2.40;84.00;;;;;;5053183;28;20017;-56
2022/03/11 02:27:07;;;;;;;18.60;9.73;;;-2.40;83.70;;;;;;5053260;28;20029;-56
2022/03/11 02:29:33;;;;;;;20.30;10.88;;;-2.40;84.60;;;;;;5052867;28;20029;-59
2022/03/11 02:31:58;;;;;;;14.27;10.05;;;-2.40;85.20;;;;;;5053781;28;20029;-59
2022/03/11 02:34:24;;;;;;;25.35;11.02;;;-2.50;86.10;;;;;;5053800;28;20029;-59
2022/03/11 02:36:50;;;;;;;22.90;11.00;;;-2.50;86.70;;;;;;5053147;28;20150;-59
2022/03/11 02:39:15;;;;;;;17.02;11.20;;;-2.50;85.50;;;;;;5053168;28;20384;-60
2022/03/11 02:41:43;;;;;;;19.65;11.75;;;-2.50;86.80;;;;;;5053594;28;20017;-59
2022/03/11 02:44:09;;;;;;;17.10;10.50;;;-2.50;88.30;;;;;;5053772;28;20013;-60
2022/03/11 02:46:35;;;;;;;16.70;10.68;;;-2.50;88.70;;;;;;5053376;28;20112;-58
2022/03/11 02:49:01;;;;;;;26.67;10.20;;;-2.50;89.90;;;;;;5053541;28;20107;-58
2022/03/11 02:51:26;;;;;;;19.50;10.73;;;-2.60;89.80;;;;;;5053189;28;20408;-58
2022/03/11 02:53:52;;;;;;;22.45;10.95;;;-2.60;90.30;;;;;;5052583;28;20035;-53
2022/03/11 02:56:18;;;;;;;23.73;11.43;;;-2.60;90.10;;;;;;5053449;28;20045;-55
2022/03/11 02:58:43;;;;;;;23.83;10.38;;;-2.60;90.30;;;;;;5051239;28;20040;-59
2022/03/11 03:01:09;;;;;;;13.43;10.65;;;-2.60;90.80;;;;;;5052895;28;20052;-56
2022/03/11 03:03:35;;;;;;;29.25;10.93;;;-2.60;90.60;;;;;;5052454;28;20227;-58
2022/03/11 03:06:02;;;;;;;18.35;10.68;;;-2.70;91.00;;;;;;5052658;28;20424;-59
2022/03/11 03:08:27;;;;;;;15.82;10.52;;;-2.70;91.10;;;;;;5052550;28;20067;-58
2022/03/11 03:10:53;;;;;;;16.80;10.98;;;-2.70;91.20;;;;;;5052900;28;20049;-56
2022/03/11 03:13:19;;;;;;;18.25;10.25;;;-2.70;91.70;;;;;;5052827;28;20049;-57
2022/03/11 03:15:44;;;;;;;18.80;11.50;;;-2.80;91.50;;;;;;5052603;28;20142;-57
2022/03/11 03:18:10;;;;;;;16.40;11.63;;;-2.70;92.00;;;;;;5051645;28;20043;-57
2022/03/11 03:20:36;;;;;;;26.73;12.73;;;-2.80;92.20;;;;;;5051399;28;20025;-59
2022/03/11 03:23:01;;;;;;;19.80;12.20;;;-2.90;92.40;;;;;;5051707;28;20072;-53
2022/03/11 03:25:27;;;;;;;19.25;10.85;;;-2.80;92.40;;;;;;5052566;28;20449;-59
2022/03/11 03:27:53;;;;;;;18.63;11.32;;;-2.90;92.70;;;;;;5052347;28;20101;-59
2022/03/11 03:30:19;;;;;;;18.17;11.43;;;-2.90;93.00;;;;;;5051342;28;20021;-59
2022/03/11 03:32:45;;;;;;;18.60;12.60;;;-2.90;93.30;;;;;;5051261;28;20017;-58
2022/03/11 03:35:11;;;;;;;19.60;10.07;;;-2.90;93.00;;;;;;5051326;28;20090;-56
2022/03/11 03:37:37;;;;;;;19.85;11.55;;;-2.90;93.50;;;;;;5050982;28;20711;-56
2022/03/11 03:40:05;;;;;;;18.65;11.45;;;-2.90;93.60;;;;;;5051153;28;20103;-60
2022/03/11 03:42:31;;;;;;;28.13;11.82;;;-2.90;93.80;;;;;;5051006;28;20773;-60
2022/03/11 03:44:56;;;;;;;20.77;10.70;;;-2.90;94.00;;;;;;5052191;28;20107;-57
2022/03/11 03:47:22;;;;;;;16.05;11.07;;;-3.00;94.10;;;;;;5052421;28;20492;-56
2022/03/11 03:49:48;;;;;;;28.10;12.77;;;-3.00;94.30;;;;;;5052193;28;20063;-55
2022/03/11 03:52:13;;;;;;;19.42;11.52;;;-3.00;94.60;;;;;;5052198;28;20413;-54
2022/03/11 03:54:40;;;;;;;19.50;11.60;;;-3.00;94.80;;;;;;5052152;28;20408;-57
2022/03/11 03:57:06;;;;;;;15.63;10.82;;;-3.00;95.30;;;;;;5052138;28;20021;-57
2022/03/11 03:59:31;;;;;;;19.65;13.20;;;-3.10;95.60;;;;;;5052109;28;20507;-57
2022/03/11 04:01:57;;;;;;;16.15;11.73;;;-3.10;95.50;;;;;;5052239;28;20104;-59
2022/03/11 04:04:23;;;;;;;20.50;11.25;;;-3.10;95.80;;;;;;5051954;28;20027;-59
2022/03/11 04:06:48;;;;;;;22.13;13.32;;;-3.20;96.20;;;;;;5051902;28;20359;-56
2022/03/11 04:09:14;;;;;;;17.13;11.35;;;-3.20;96.40;;;;;;5064081;28;20033;-58
2022/03/11 04:11:42;;;;;;;20.38;12.50;;;-3.20;96.40;;;;;;5070168;28;20028;-56
2022/03/11 04:14:08;;;;;;;16.17;10.68;;;-3.20;96.70;;;;;;5070652;28;20055;-59
2022/03/11 04:16:34;;;;;;;26.08;12.27;;;-3.30;97.00;;;;;;5070513;28;20024;-59
2022/03/11 04:19:00;;;;;;;20.58;12.10;;;-3.20;96.60;;;;;;5071422;28;20104;-59
2022/03/11 04:21:25;;;;;;;20.48;12.50;;;-3.20;96.60;;;;;;5071057;28;20028;-59
2022/03/11 04:23:52;;;;;;;18.35;12.27;;;-3.20;97.00;;;;;;5071090;28;20380;-59
2022/03/11 04:26:18;;;;;;;15.85;11.40;;;-3.20;96.60;;;;;;5071699;28;20398;-56
2022/03/11 04:28:44;;;;;;;18.73;11.35;;;-3.20;96.70;;;;;;5071446;28;20043;-58
2022/03/11 04:31:14;;;;;;;17.92;11.70;;;-3.30;97.50;;;;;;5071734;28;20016;-59
2022/03/11 04:33:42;;;;;;;19.17;11.35;;;-3.30;97.30;;;;;;5070510;28;20033;-59
2022/03/11 04:36:08;;;;;;;22.42;12.30;;;-3.30;97.50;;;;;;5070029;28;20024;-59
2022/03/11 04:38:34;;;;;;;18.63;10.77;;;-3.30;97.60;;;;;;5071090;28;20554;-60
2022/03/11 04:41:01;;;;;;;16.88;11.23;;;-3.30;97.90;;;;;;5070282;28;20032;-59
2022/03/11 04:43:27;;;;;;;17.77;11.45;;;-3.40;97.60;;;;;;5070052;28;20029;-58
2022/03/11 04:45:53;;;;;;;21.13;11.73;;;-3.30;97.80;;;;;;5071700;28;20043;-60
2022/03/11 04:48:20;;;;;;;16.38;11.60;;;-3.30;97.90;;;;;;5071379;28;20024;-59
2022/03/11 04:50:45;;;;;;;19.20;11.15;;;-3.40;98.00;;;;;;5070544;28;20360;-59
2022/03/11 04:53:11;;;;;;;20.52;13.05;;;-3.40;98.00;;;;;;5071222;28;20118;-59
2022/03/11 04:55:37;;;;;;;20.95;12.50;;;-3.40;98.30;;;;;;5071171;28;20085;-58
2022/03/11 04:58:03;;;;;;;21.90;12.68;;;-3.40;98.50;;;;;;5071562;28;20020;-59
2022/03/11 05:00:29;;;;;;;19.25;12.38;;;-3.40;98.40;;;;;;5071387;28;20396;-61
2022/03/11 05:02:55;;;;;;;19.58;12.02;;;-3.40;98.30;;;;;;5071532;28;20157;-60
2022/03/11 05:05:21;;;;;;;23.83;12.95;;;-3.40;98.20;;;;;;5071512;28;20028;-57
2022/03/11 05:07:47;;;;;;;19.50;12.63;;;-3.40;98.40;;;;;;5069935;28;20036;-56
2022/03/11 05:10:16;;;;;;;18.17;12.43;;;-3.50;98.70;;;;;;5071568;28;20024;-56
2022/03/11 05:12:42;;;;;;;19.95;12.88;;;-3.50;98.70;;;;;;5069856;28;20029;-56
2022/03/11 05:15:10;;;;;;;22.73;12.73;;;-3.50;98.60;;;;;;5071503;28;20025;-57
2022/03/11 05:17:36;;;;;;;21.55;12.80;;;-3.50;98.70;;;;;;5071073;28;20032;-55
2022/03/11 05:20:03;;;;;;;22.70;13.88;;;-3.50;98.90;;;;;;5071378;28;20059;-55
2022/03/11 05:22:29;;;;;;;24.10;12.55;;;-3.50;99.00;;;;;;5074665;28;20024;-56
2022/03/11 05:24:55;;;;;;;17.40;11.25;;;-3.50;99.30;;;;;;5075259;28;20453;-55
2022/03/11 05:27:21;;;;;;;24.52;12.48;;;-3.50;99.50;;;;;;5074884;28;20028;-51
2022/03/11 05:29:46;;;;;;;17.48;12.00;;;-3.60;99.50;;;;;;5073634;28;20059;-58
2022/03/11 05:32:14;;;;;;;20.73;12.88;;;-3.60;99.50;;;;;;5073793;28;20456;-51
2022/03/11 05:34:42;;;;;;;24.20;13.50;;;-3.50;99.50;;;;;;5074785;28;20028;-53
2022/03/11 05:37:09;;;;;;;29.08;12.65;;;-3.50;99.60;;;;;;5074664;28;20032;-57
2022/03/11 05:39:34;;;;;;;21.67;13.13;;;-3.50;99.40;;;;;;5074568;28;20474;-56
2022/03/11 05:42:00;;;;;;;20.88;12.68;;;-3.60;99.60;;;;;;5073623;28;20032;-57
2022/03/11 05:44:26;;;;;;;22.58;13.45;;;-3.50;99.20;;;;;;5074665;28;20048;-54
2022/03/11 05:46:52;;;;;;;21.25;12.77;;;-3.50;99.30;;;;;;5074698;28;20059;-54
2022/03/11 05:49:19;;;;;;;18.42;12.93;;;-3.50;99.00;;;;;;5074664;28;20124;-57
2022/03/11 05:51:45;;;;;;;18.45;12.43;;;-3.50;99.10;;;;;;5074422;28;20107;-56
2022/03/11 05:54:10;;;;;;;23.33;11.48;;;-3.50;99.20;;;;;;5074607;28;20128;-56
2022/03/11 05:56:37;;;;;;;22.90;13.02;;;-3.50;99.10;;;;;;5072527;28;20116;-55
2022/03/11 05:59:04;;;;;;;19.65;13.57;;;-3.40;99.60;;;;;;5073896;28;20050;-54
2022/03/11 06:01:30;;;;;;;20.77;12.43;;;-3.40;99.20;;;;;;5073707;28;20395;-59
2022/03/11 06:03:56;;;;;;;20.08;13.73;;;-3.40;99.30;;;;;;5074012;28;20024;-59
2022/03/11 06:06:22;;;;;;;21.67;13.68;;;-3.40;99.50;;;;;;5074288;28;20079;-57
2022/03/11 06:08:47;;;;;;;22.85;13.25;;;-3.30;99.20;;;;;;5074121;28;20472;-58
2022/03/11 06:11:13;;;;;;;31.58;13.98;;;-3.30;99.10;;;;;;5074035;28;20108;-57
2022/03/11 06:13:38;;;;;;;24.73;12.98;;;-3.30;99.40;;;;;;5072531;28;20158;-57
2022/03/11 06:16:04;;;;;;;17.95;12.82;;;-3.30;99.30;;;;;;5072884;28;20498;-58
2022/03/11 06:18:30;;;;;;;24.10;12.38;;;-3.20;99.10;;;;;;5073857;28;20054;-57
2022/03/11 06:20:56;;;;;;;20.23;12.93;;;-3.20;99.40;;;;;;5073886;28;20116;-56
2022/03/11 06:23:23;;;;;;;20.30;13.43;;;-3.10;99.20;;;;;;5072781;28;20024;-55
2022/03/11 06:25:49;;;;;;;15.95;11.35;;;-3.10;99.30;;;;;;5073810;28;20012;-57
2022/03/11 06:28:14;;;;;;;23.73;13.35;;;-3.00;99.10;;;;;;5073965;28;20033;-57
2022/03/11 06:30:40;;;;;;;21.23;13.57;;;-3.00;99.20;;;;;;5073896;28;20026;-59
2022/03/11 06:33:06;;;;;;;27.05;12.13;;;-2.90;99.40;;;;;;5072700;28;20021;-59
2022/03/11 06:35:32;;;;;;;32.28;13.63;;;-2.90;98.90;;;;;;5073498;28;20024;-59
2022/03/11 06:37:58;;;;;;;20.27;11.77;;;-2.90;99.10;;;;;;5073701;28;20067;-58
2022/03/11 06:40:24;;;;;;;19.95;13.32;;;-2.80;98.90;;;;;;5073498;28;20415;-59
2022/03/11 06:42:50;;;;;;;18.95;11.82;;;-2.80;99.10;;;;;;5073540;28;20027;-58
2022/03/11 06:45:17;;;;;;;18.02;12.88;;;-2.70;98.60;;;;;;5073600;28;20029;-58
2022/03/11 06:47:44;;;;;;;22.75;13.32;;;-2.70;98.70;;;;;;5073230;28;20032;-58
2022/03/11 06:50:11;;;;;;;24.90;12.73;;;-2.70;98.90;;;;;;5073514;28;20036;-55
2022/03/11 06:52:36;;;;;;;22.60;12.80;;;-2.60;98.40;;;;;;5073377;28;20028;-59
2022/03/11 06:55:03;;;;;;;37.40;14.15;;;-2.50;98.80;;;;;;5073324;28;20026;-59
2022/03/11 06:57:30;;;;;;;25.83;13.18;;;-2.50;98.30;;;;;;5073020;28;20028;-58
2022/03/11 06:59:56;;;;;;;22.75;12.82;;;-2.50;98.60;;;;;;5073197;28;20027;-58
2022/03/11 07:02:24;;;;;;;20.75;14.43;;;-2.50;98.30;;;;;;5073269;28;20371;-58
2022/03/11 07:04:50;;;;;;;22.38;13.77;;;-2.40;98.60;;;;;;5073260;28;20141;-59
2022/03/11 07:07:16;;;;;;;17.80;11.98;;;-2.30;98.70;;;;;;5072989;28;20028;-58
2022/03/11 07:09:41;;;;;;;26.65;13.68;;;-2.30;98.70;;;;;;5072799;28;20052;-56
2022/03/11 07:12:07;;;;;;;20.73;12.93;;;-2.20;98.50;;;;;;5073102;28;20085;-60
2022/03/11 07:14:37;;;;;;;28.02;13.38;;;-2.20;98.50;;;;;;5072540;28;20078;-59
2022/03/11 07:17:04;;;;;;;22.42;13.00;;;-2.10;98.60;;;;;;5072821;28;20451;-59
2022/03/11 07:19:30;;;;;;;18.13;12.88;;;-1.90;98.00;;;;;;5072688;28;20455;-57
2022/03/11 07:21:57;;;;;;;22.33;13.30;;;-1.80;98.10;;;;;;5071678;28;20058;-57
2022/03/11 07:24:23;;;;;;;24.38;12.82;;;-1.90;97.00;;;;;;5072767;28;20023;-57
2022/03/11 07:26:48;;;;;;;22.02;12.80;;;-1.90;97.30;;;;;;5072629;28;20028;-59
2022/03/11 07:29:14;;;;;;;18.27;11.77;;;-1.90;97.20;;;;;;5072713;28;20031;-58
2022/03/11 07:31:40;;;;;;;27.33;13.07;;;-1.80;97.40;;;;;;5072512;28;20020;-57
2022/03/11 07:34:06;;;;;;;23.92;14.55;;;-1.70;97.40;;;;;;5072668;28;20020;-54
2022/03/11 07:36:34;;;;;;;21.88;12.43;;;-1.60;97.10;;;;;;5072403;28;20493;-55
2022/03/11 07:39:06;;;;;;;22.55;13.65;;;-1.60;96.90;;;;;;5072535;28;20048;-56
2022/03/11 07:41:33;;;;;;;25.13;12.40;;;-1.50;96.70;;;;;;5071018;28;20360;-56
2022/03/11 07:43:59;;;;;;;20.75;13.15;;;-1.40;96.60;;;;;;5072146;28;20047;-57
2022/03/11 07:46:27;;;;;;;20.50;11.98;;;-1.30;96.50;;;;;;5072139;28;20020;-59
2022/03/11 07:48:53;;;;;;;21.35;12.57;;;-1.20;96.50;;;;;;5071575;28;20051;-59
2022/03/11 07:51:20;;;;;;;24.48;13.23;;;-1.20;95.80;;;;;;5071703;28;20024;-59
2022/03/11 07:53:45;;;;;;;24.73;13.82;;;-1.20;95.30;;;;;;5072202;28;20036;-58
2022/03/11 07:56:13;;;;;;;21.02;13.35;;;-1.10;95.10;;;;;;5072239;28;20400;-59
2022/03/11 07:58:41;;;;;;;22.33;12.23;;;-1.10;95.00;;;;;;5071840;28;20024;-59
2022/03/11 08:01:12;;;;;;;24.45;13.88;;;-1.10;95.10;;;;;;5072278;28;20482;-58
2022/03/11 08:03:40;;;;;;;23.30;13.07;;;-1.00;95.00;;;;;;5071997;28;20104;-60
2022/03/11 08:06:08;;;;;;;29.08;12.15;;;-0.90;95.00;;;;;;5072233;28;20040;-59
2022/03/11 08:08:34;;;;;;;17.67;12.23;;;-0.70;94.90;;;;;;5071895;28;20044;-58
2022/03/11 08:11:01;;;;;;;28.17;15.38;;;-0.50;95.00;;;;;;5072097;28;20013;-57
2022/03/11 08:13:26;;;;;;;23.55;14.75;;;-0.40;94.70;;;;;;5071438;28;20139;-59
2022/03/11 08:15:53;;;;;;;24.60;12.20;;;-0.40;94.30;;;;;;5071986;28;20104;-58
2022/03/11 08:18:20;;;;;;;21.80;13.38;;;-0.20;94.50;;;;;;5070597;28;20021;-56
2022/03/11 08:20:45;;;;;;;20.98;12.63;;;-0.20;94.30;;;;;;5071845;28;20033;-58
2022/03/11 08:23:11;;;;;;;27.13;14.88;;;0.00;94.10;;;;;;5071310;28;20016;-57
2022/03/11 08:25:37;;;;;;;24.20;13.50;;;0.10;93.50;;;;;;5071103;28;20021;-56
2022/03/11 08:28:04;;;;;;;21.58;11.68;;;0.10;93.40;;;;;;5070919;28;20053;-58
2022/03/11 08:30:31;;;;;;;19.23;12.55;;;0.30;93.40;;;;;;5070795;28;20052;-58
2022/03/11 08:32:58;;;;;;;23.88;11.75;;;0.30;92.50;;;;;;5070905;28;20111;-59
2022/03/11 08:35:24;;;;;;;22.80;12.80;;;0.40;92.60;;;;;;5070994;28;20029;-57
2022/03/11 08:37:49;;;;;;;27.67;12.45;;;0.50;91.90;;;;;;5069332;28;20031;-58
2022/03/11 08:40:15;;;;;;;18.77;11.98;;;0.40;91.80;;;;;;5069679;28;20071;-59
2022/03/11 08:42:42;;;;;;;17.60;11.35;;;0.40;91.50;;;;;;5070510;28;20027;-57
2022/03/11 08:45:10;;;;;;;23.80;11.85;;;0.40;91.00;;;;;;5070933;28;20020;-58
2022/03/11 08:47:35;;;;;;;16.10;11.80;;;0.40;91.40;;;;;;5070335;28;20051;-58
2022/03/11 08:50:04;;;;;;;25.70;11.38;;;0.60;91.30;;;;;;5070639;28;20052;-58
2022/03/11 08:52:31;;;;;;;21.95;12.70;;;0.90;91.20;;;;;;5070158;28;20020;-52
2022/03/11 08:54:57;;;;;;;32.15;16.80;;;1.10;90.80;;;;;;5070932;28;20036;-54
2022/03/11 08:57:24;;;;;;;27.52;13.60;;;1.10;90.00;;;;;;5075065;28;20074;-57
2022/03/11 08:59:49;;;;;;;34.83;23.98;;;1.10;90.30;;;;;;5075399;28;20505;-57
2022/03/11 09:02:15;;;;;;;48.92;20.77;;;1.10;88.50;;;;;;5074977;28;20009;-54
2022/03/11 09:04:41;;;;;;;28.65;16.23;;;1.10;88.70;;;;;;5075310;28;20368;-55
2022/03/11 09:07:08;;;;;;;32.35;13.38;;;1.20;88.70;;;;;;5074656;28;20383;-57
2022/03/11 09:09:34;;;;;;;24.08;14.35;;;1.50;90.00;;;;;;5074568;28;20028;-55
2022/03/11 09:12:00;;;;;;;24.67;14.52;;;1.70;88.30;;;;;;5074578;28;20037;-52
2022/03/11 09:14:26;;;;;;;37.65;19.52;;;1.80;86.70;;;;;;5073461;28;20067;-53
2022/03/11 09:16:52;;;;;;;35.22;16.85;;;1.70;85.50;;;;;;5075310;28;20054;-59
2022/03/11 09:19:18;;;;;;;35.40;18.98;;;1.80;85.70;;;;;;5073947;28;20116;-56
2022/03/11 09:21:43;;;;;;;25.52;14.05;;;1.80;84.60;;;;;;5075146;28;20021;-57
2022/03/11 09:24:09;;;;;;;19.90;12.80;;;1.80;83.50;;;;;;5075035;28;20025;-56
2022/03/11 09:26:35;;;;;;;25.00;14.77;;;2.10;84.50;;;;;;5073748;28;20040;-58
2022/03/11 09:29:00;;;;;;;22.02;14.18;;;2.10;82.00;;;;;;5075172;28;20490;-56
2022/03/11 09:31:26;;;;;;;29.20;13.77;;;2.30;83.40;;;;;;5074446;28;20060;-55
2022/03/11 09:33:52;;;;;;;34.20;13.45;;;2.30;81.60;;;;;;5074428;28;20761;-58
2022/03/11 09:36:18;;;;;;;19.35;10.50;;;2.50;81.00;;;;;;5074826;28;20024;-57
2022/03/11 09:38:43;;;;;;;29.00;14.07;;;2.60;80.60;;;;;;5074629;28;20025;-58
2022/03/11 09:41:10;;;;;;;24.52;12.35;;;2.80;80.00;;;;;;5074880;28;20016;-56
2022/03/11 09:43:38;;;;;;;28.48;13.45;;;3.10;79.70;;;;;;5074612;28;20028;-55
2022/03/11 09:46:04;;;;;;;21.60;13.10;;;3.50;80.00;;;;;;5074819;28;20468;-59
2022/03/11 09:48:32;;;;;;;25.98;14.85;;;3.50;76.50;;;;;;5074689;28;20111;-58
2022/03/11 09:51:01;;;;;;;18.45;12.10;;;3.50;77.00;;;;;;5074578;28;20025;-57
2022/03/11 09:53:28;;;;;;;26.27;15.18;;;3.70;76.80;;;;;;5073096;28;20020;-59
2022/03/11 09:55:54;;;;;;;38.42;13.20;;;3.90;74.80;;;;;;5074326;28;20032;-53
2022/03/11 09:58:19;;;;;;;18.80;12.40;;;4.10;73.30;;;;;;5074608;28;20091;-56
2022/03/11 10:00:48;;;;;;;28.20;12.98;;;3.80;72.40;;;;;;5074260;28;20198;-54
2022/03/11 10:03:13;;;;;;;26.70;14.50;;;3.60;72.40;;;;;;5074514;28;20063;-53
2022/03/11 10:05:51;;;;;;;34.83;15.10;;;3.50;73.00;;;;;;5074081;28;20415;-54
2022/03/11 10:08:30;;;;;;;39.60;13.75;;;3.90;73.60;;;;;;5074183;28;20020;-55
2022/03/11 10:11:16;;;;;;;24.88;13.50;;;4.20;71.30;;;;;;5073028;28;20618;-53
2022/03/11 10:13:42;;;;;;;33.58;13.82;;;4.10;70.00;;;;;;5073942;28;20036;-53
2022/03/11 10:16:25;;;;;;;19.83;11.80;;;4.30;72.10;;;;;;5074155;28;20455;-57
2022/03/11 10:18:55;;;;;;;21.85;11.27;;;4.70;70.60;;;;;;5072691;28;20021;-57
2022/03/11 10:21:27;;;;;;;37.53;13.98;;;4.90;70.90;;;;;;5074145;28;20025;-57
2022/03/11 10:23:52;;;;;;;29.92;14.98;;;5.00;69.60;;;;;;5073883;28;20016;-57
2022/03/11 10:26:45;;;;;;;29.40;15.23;;;5.20;66.50;;;;;;5074148;28;20473;-54
2022/03/11 10:29:22;;;;;;;25.55;14.25;;;5.10;65.10;;;;;;5073941;28;20036;-54
2022/03/11 10:31:51;;;;;;;31.25;16.80;;;5.20;66.80;;;;;;5073697;28;20033;-52
2022/03/11 10:34:28;;;;;;;25.80;15.60;;;5.40;67.20;;;;;;5073891;28;20023;-54
2022/03/11 10:37:02;;;;;;;24.80;14.68;;;5.70;65.40;;;;;;5073840;28;20048;-55
2022/03/11 10:39:31;;;;;;;44.80;21.73;;;5.50;63.90;;;;;;5073545;28;20437;-52
2022/03/11 10:42:13;;;;;;;35.15;18.83;;;5.10;62.60;;;;;;5073683;28;20108;-53
2022/03/11 10:44:40;;;;;;;34.75;15.32;;;5.30;63.40;;;;;;5073596;28;20107;-57
2022/03/11 10:47:27;;;;;;;36.58;12.50;;;5.60;62.30;;;;;;5073681;28;20032;-54
2022/03/11 10:49:54;;;;;;;27.05;11.32;;;6.50;60.70;;;;;;5073726;28;20035;-54
2022/03/11 10:52:32;;;;;;;22.10;12.15;;;6.70;58.00;;;;;;5072126;28;20059;-53
2022/03/11 10:54:59;;;;;;;18.70;11.38;;;7.70;56.30;;;;;;5073444;28;20035;-56
2022/03/11 10:57:37;;;;;;;23.98;10.50;;;9.40;52.90;;;;;;5073308;28;20032;-57
2022/03/11 11:00:20;;;;;;;24.67;11.60;;;10.80;48.50;;;;;;5073411;28;20501;-56
2022/03/11 11:02:47;;;;;;;23.02;10.40;;;11.10;45.80;;;;;;5073200;28;20025;-58
2022/03/11 11:05:13;;;;;;;28.92;10.27;;;11.70;43.00;;;;;;5073269;28;20106;-57
2022/03/11 11:07:43;;;;;;;20.67;10.90;;;11.80;40.70;;;;;;5073088;28;20051;-58
2022/03/11 11:10:13;;;;;;;19.02;10.55;;;12.50;41.10;;;;;;5072479;28;20371;-59
2022/03/11 11:12:40;;;;;;;15.35;9.98;;;13.30;39.60;;;;;;5072386;28;20032;-59
2022/03/11 11:15:06;;;;;;;17.25;9.77;;;13.70;38.00;;;;;;5073061;28;20416;-58
2022/03/11 11:17:35;;;;;;;23.92;11.15;;;13.40;36.90;;;;;;5072277;28;20379;-59
2022/03/11 11:20:04;;;;;;;24.65;11.07;;;12.30;38.50;;;;;;5072160;28;20025;-58
2022/03/11 11:22:31;;;;;;;22.33;10.00;;;12.60;39.20;;;;;;5072523;28;20064;-58
2022/03/11 11:25:01;;;;;;;20.10;10.07;;;13.50;37.30;;;;;;5072981;28;20035;-59
2022/03/11 11:27:30;;;;;;;16.48;10.50;;;13.20;36.30;;;;;;5072750;28;20379;-59
2022/03/11 11:29:57;;;;;;;23.67;12.32;;;13.60;36.60;;;;;;5072873;28;20036;-59
2022/03/11 11:32:23;;;;;;;21.75;12.02;;;13.70;36.10;;;;;;5072767;28;20031;-59
2022/03/11 11:34:48;;;;;;;22.65;11.20;;;13.10;36.60;;;;;;5072806;28;20028;-59
2022/03/11 11:37:37;;;;;;;15.80;11.32;;;13.20;37.10;;;;;;5072391;28;20025;-59
2022/03/11 11:40:26;;;;;;;25.13;11.52;;;13.00;38.10;;;;;;5072648;28;20027;-59
2022/03/11 11:43:14;;;;;;;18.15;10.23;;;12.90;36.50;;;;;;5072502;28;20020;-59
2022/03/11 11:45:53;;;;;;;19.70;11.60;;;13.00;36.20;;;;;;5071963;28;20025;-59
2022/03/11 11:48:34;;;;;;;40.35;10.25;;;12.70;36.00;;;;;;5072429;28;20059;-59
2022/03/11 11:51:05;;;;;;;19.83;10.95;;;13.20;36.40;;;;;;5072251;28;20107;-59
2022/03/11 11:53:31;;;;;;;35.60;12.02;;;12.50;36.00;;;;;;5072281;28;20024;-59
2022/03/11 11:55:57;;;;;;;23.85;11.15;;;13.10;35.90;;;;;;5072343;28;20349;-59
2022/03/11 11:58:23;;;;;;;29.08;12.27;;;14.30;34.40;;;;;;5072029;28;20029;-59
2022/03/11 12:00:54;;;;;;;29.25;12.32;;;15.00;33.20;;;;;;5072077;28;20037;-59
2022/03/11 12:03:20;;;;;;;19.50;11.00;;;14.40;32.40;;;;;;5072190;28;20051;-59
2022/03/11 12:05:50;;;;;;;21.10;9.25;;;14.30;33.50;;;;;;5071848;28;20495;-58
2022/03/11 12:08:34;;;;;;;28.10;12.25;;;15.00;34.00;;;;;;5071980;28;20041;-58
2022/03/11 12:11:01;;;;;;;19.77;10.30;;;14.50;32.70;;;;;;5071916;28;20025;-58
2022/03/11 12:13:37;;;;;;;22.08;9.68;;;15.10;33.10;;;;;;5071723;28;20037;-59
2022/03/11 12:16:04;;;;;;;34.78;9.60;;;15.40;32.60;;;;;;5071932;28;20032;-58
2022/03/11 12:18:37;;;;;;;17.58;9.30;;;15.10;32.70;;;;;;5071946;28;20021;-58
2022/03/11 12:21:03;;;;;;;16.60;8.80;;;15.20;32.90;;;;;;5072028;28;20021;-58
2022/03/11 12:23:36;;;;;;;14.40;9.80;;;15.50;32.60;;;;;;5071562;28;20476;-59
2022/03/11 12:26:10;;;;;;;21.13;9.13;;;15.50;31.60;;;;;;5072045;28;20103;-59
2022/03/11 12:28:39;;;;;;;30.77;10.40;;;16.20;31.70;;;;;;5071807;28;20090;-59
2022/03/11 12:31:14;;;;;;;21.25;8.90;;;14.10;32.20;;;;;;5071060;28;20032;-58
2022/03/11 12:33:50;;;;;;;12.65;8.63;;;14.10;32.20;;;;;;5070231;28;20157;-59
2022/03/11 12:36:21;;;;;;;17.55;9.63;;;15.40;32.00;;;;;;5071771;28;20351;-59
2022/03/11 12:38:47;;;;;;;18.20;8.85;;;14.20;31.40;;;;;;5071523;28;20050;-58